sensor_id;sensor_type;location;lat;lon;timestamp;P1;durP1;ratioP1;P2;durP2;ratioP2
19179;SDS011;9722;48.754;8.868;2022-12-04T00:01:57;16.97;;;12.87;;
19179;SDS011;9722;48.754;8.868;2022-12-04T00:05:18;18.27;;;13.13;;
19179;SDS011;9722;48.754;8.868;2022-12-04T00:08:39;21.50;;;13.53;;
19179;SDS011;9722;48.754;8.868;2022-12-04T00:12:00;18.50;;;12.60;;
19179;SDS011;9722;48.754;8.868;2022-12-04T00:15:20;16.67;;;12.13;;
19179;SDS011;9722;48.754;8.868;2022-12-04T00:18:41;20.50;;;12.77;;
19179;SDS011;9722;48.754;8.868;2022-12-04T00:22:01;16.73;;;12.27;;
19179;SDS011;9722;48.754;8.868;2022-12-04T00:25:22;24.20;;;14.47;;
19179;SDS011;9722;48.754;8.868;2022-12-04T00:28:43;20.47;;;13.40;;
19179;SDS011;9722;48.754;8.868;2022-12-04T00:32:04;21.73;;;14.70;;
19179;SDS011;9722;48.754;8.868;2022-12-04T00:35:24;18.17;;;13.73;;
19179;SDS011;9722;48.754;8.868;2022-12-04T00:38:45;18.93;;;13.80;;
19179;SDS011;9722;48.754;8.868;2022-12-04T00:42:06;19.57;;;12.90;;
19179;SDS011;9722;48.754;8.868;2022-12-04T00:45:26;17.77;;;12.63;;
19179;SDS011;9722;48.754;8.868;2022-12-04T00:48:47;20.20;;;13.20;;
19179;SDS011;9722;48.754;8.868;2022-12-04T00:52:08;17.93;;;12.57;;
19179;SDS011;9722;48.754;8.868;2022-12-04T00:55:28;19.53;;;12.93;;
19179;SDS011;9722;48.754;8.868;2022-12-04T00:58:50;20.40;;;14.03;;
19179;SDS011;9722;48.754;8.868;2022-12-04T01:02:12;19.30;;;14.07;;
19179;SDS011;9722;48.754;8.868;2022-12-04T01:05:43;19.83;;;13.20;;
19179;SDS011;9722;48.754;8.868;2022-12-04T01:09:04;17.23;;;12.97;;
19179;SDS011;9722;48.754;8.868;2022-12-04T01:12:25;17.83;;;12.13;;
19179;SDS011;9722;48.754;8.868;2022-12-04T01:15:45;19.70;;;12.27;;
19179;SDS011;9722;48.754;8.868;2022-12-04T01:19:09;20.70;;;13.70;;
19179;SDS011;9722;48.754;8.868;2022-12-04T01:22:31;16.83;;;12.77;;
19179;SDS011;9722;48.754;8.868;2022-12-04T01:25:52;15.93;;;12.57;;
19179;SDS011;9722;48.754;8.868;2022-12-04T01:29:14;18.20;;;12.13;;
19179;SDS011;9722;48.754;8.868;2022-12-04T01:32:35;16.37;;;12.67;;
19179;SDS011;9722;48.754;8.868;2022-12-04T01:35:56;19.33;;;13.30;;
19179;SDS011;9722;48.754;8.868;2022-12-04T01:39:17;17.13;;;13.50;;
19179;SDS011;9722;48.754;8.868;2022-12-04T01:42:38;19.07;;;13.03;;
19179;SDS011;9722;48.754;8.868;2022-12-04T01:45:59;18.70;;;13.20;;
19179;SDS011;9722;48.754;8.868;2022-12-04T01:49:22;19.17;;;13.70;;
19179;SDS011;9722;48.754;8.868;2022-12-04T01:52:54;19.53;;;13.10;;
19179;SDS011;9722;48.754;8.868;2022-12-04T01:56:15;17.53;;;13.27;;
19179;SDS011;9722;48.754;8.868;2022-12-04T01:59:39;16.00;;;12.27;;
19179;SDS011;9722;48.754;8.868;2022-12-04T02:03:04;19.93;;;13.20;;
19179;SDS011;9722;48.754;8.868;2022-12-04T02:06:25;17.47;;;12.70;;
19179;SDS011;9722;48.754;8.868;2022-12-04T02:09:45;13.63;;;10.87;;
19179;SDS011;9722;48.754;8.868;2022-12-04T02:17:02;16.57;;;12.37;;
19179;SDS011;9722;48.754;8.868;2022-12-04T02:20:35;18.57;;;12.07;;
19179;SDS011;9722;48.754;8.868;2022-12-04T02:24:14;18.10;;;12.47;;
19179;SDS011;9722;48.754;8.868;2022-12-04T02:28:04;15.20;;;11.50;;
19179;SDS011;9722;48.754;8.868;2022-12-04T02:31:44;13.67;;;11.17;;
19179;SDS011;9722;48.754;8.868;2022-12-04T02:35:23;12.17;;;10.57;;
19179;SDS011;9722;48.754;8.868;2022-12-04T02:46:12;15.03;;;11.93;;
19179;SDS011;9722;48.754;8.868;2022-12-04T02:49:42;14.07;;;11.53;;
19179;SDS011;9722;48.754;8.868;2022-12-04T02:53:12;12.83;;;10.90;;
19179;SDS011;9722;48.754;8.868;2022-12-04T02:56:42;13.73;;;11.03;;
19179;SDS011;9722;48.754;8.868;2022-12-04T03:00:05;16.87;;;11.20;;
19179;SDS011;9722;48.754;8.868;2022-12-04T03:03:28;17.67;;;11.50;;
19179;SDS011;9722;48.754;8.868;2022-12-04T03:06:53;12.67;;;11.17;;
19179;SDS011;9722;48.754;8.868;2022-12-04T03:10:18;11.93;;;10.13;;
19179;SDS011;9722;48.754;8.868;2022-12-04T03:13:51;12.57;;;9.80;;
19179;SDS011;9722;48.754;8.868;2022-12-04T03:17:20;13.43;;;11.17;;
19179;SDS011;9722;48.754;8.868;2022-12-04T03:20:47;14.27;;;11.30;;
19179;SDS011;9722;48.754;8.868;2022-12-04T03:24:12;12.20;;;10.13;;
19179;SDS011;9722;48.754;8.868;2022-12-04T03:27:44;12.23;;;10.67;;
19179;SDS011;9722;48.754;8.868;2022-12-04T03:31:14;12.37;;;10.50;;
19179;SDS011;9722;48.754;8.868;2022-12-04T03:38:29;12.50;;;11.03;;
19179;SDS011;9722;48.754;8.868;2022-12-04T03:42:17;14.23;;;10.67;;
19179;SDS011;9722;48.754;8.868;2022-12-04T03:45:46;13.37;;;10.73;;
19179;SDS011;9722;48.754;8.868;2022-12-04T03:49:22;13.10;;;11.43;;
19179;SDS011;9722;48.754;8.868;2022-12-04T03:56:37;14.10;;;10.40;;
19179;SDS011;9722;48.754;8.868;2022-12-04T04:03:31;12.10;;;9.57;;
19179;SDS011;9722;48.754;8.868;2022-12-04T04:06:56;13.63;;;10.63;;
19179;SDS011;9722;48.754;8.868;2022-12-04T04:10:23;13.13;;;10.60;;
19179;SDS011;9722;48.754;8.868;2022-12-04T04:13:56;11.20;;;10.03;;
19179;SDS011;9722;48.754;8.868;2022-12-04T04:17:41;12.53;;;10.50;;
19179;SDS011;9722;48.754;8.868;2022-12-04T04:21:22;13.93;;;11.10;;
19179;SDS011;9722;48.754;8.868;2022-12-04T04:25:09;11.73;;;9.83;;
19179;SDS011;9722;48.754;8.868;2022-12-04T04:28:39;14.30;;;10.83;;
19179;SDS011;9722;48.754;8.868;2022-12-04T04:32:11;13.67;;;11.20;;
19179;SDS011;9722;48.754;8.868;2022-12-04T04:39:39;16.27;;;11.10;;
19179;SDS011;9722;48.754;8.868;2022-12-04T04:43:07;11.87;;;10.07;;
19179;SDS011;9722;48.754;8.868;2022-12-04T04:46:50;14.40;;;11.23;;
19179;SDS011;9722;48.754;8.868;2022-12-04T04:50:14;14.30;;;11.27;;
19179;SDS011;9722;48.754;8.868;2022-12-04T04:53:38;13.90;;;11.70;;
19179;SDS011;9722;48.754;8.868;2022-12-04T04:57:02;15.83;;;11.13;;
19179;SDS011;9722;48.754;8.868;2022-12-04T05:00:23;12.67;;;10.83;;
19179;SDS011;9722;48.754;8.868;2022-12-04T05:03:44;15.63;;;11.70;;
19179;SDS011;9722;48.754;8.868;2022-12-04T05:07:04;15.40;;;11.70;;
19179;SDS011;9722;48.754;8.868;2022-12-04T05:10:25;13.03;;;11.53;;
19179;SDS011;9722;48.754;8.868;2022-12-04T05:13:45;15.43;;;11.73;;
19179;SDS011;9722;48.754;8.868;2022-12-04T05:17:06;15.33;;;11.00;;
19179;SDS011;9722;48.754;8.868;2022-12-04T05:20:26;15.63;;;12.23;;
19179;SDS011;9722;48.754;8.868;2022-12-04T05:23:49;17.27;;;12.90;;
19179;SDS011;9722;48.754;8.868;2022-12-04T05:27:10;14.90;;;12.67;;
19179;SDS011;9722;48.754;8.868;2022-12-04T05:30:30;17.27;;;12.80;;
19179;SDS011;9722;48.754;8.868;2022-12-04T05:33:51;15.47;;;12.10;;
19179;SDS011;9722;48.754;8.868;2022-12-04T05:37:11;16.63;;;12.20;;
19179;SDS011;9722;48.754;8.868;2022-12-04T05:40:32;16.63;;;12.40;;
19179;SDS011;9722;48.754;8.868;2022-12-04T05:43:52;16.90;;;11.40;;
19179;SDS011;9722;48.754;8.868;2022-12-04T05:47:13;17.80;;;12.43;;
19179;SDS011;9722;48.754;8.868;2022-12-04T05:50:33;18.67;;;12.97;;
19179;SDS011;9722;48.754;8.868;2022-12-04T05:53:54;13.83;;;11.47;;
19179;SDS011;9722;48.754;8.868;2022-12-04T05:57:14;14.17;;;10.60;;
19179;SDS011;9722;48.754;8.868;2022-12-04T06:00:35;15.10;;;11.83;;
19179;SDS011;9722;48.754;8.868;2022-12-04T06:03:55;12.57;;;11.23;;
19179;SDS011;9722;48.754;8.868;2022-12-04T06:07:16;12.63;;;10.77;;
19179;SDS011;9722;48.754;8.868;2022-12-04T06:10:37;12.77;;;11.17;;
19179;SDS011;9722;48.754;8.868;2022-12-04T06:13:58;13.97;;;11.50;;
19179;SDS011;9722;48.754;8.868;2022-12-04T06:17:20;15.03;;;11.57;;
19179;SDS011;9722;48.754;8.868;2022-12-04T06:20:40;15.23;;;11.40;;
19179;SDS011;9722;48.754;8.868;2022-12-04T06:24:01;15.50;;;12.00;;
19179;SDS011;9722;48.754;8.868;2022-12-04T06:27:22;15.80;;;12.03;;
19179;SDS011;9722;48.754;8.868;2022-12-04T06:30:42;15.80;;;11.80;;
19179;SDS011;9722;48.754;8.868;2022-12-04T06:34:03;14.80;;;10.83;;
19179;SDS011;9722;48.754;8.868;2022-12-04T06:37:25;17.10;;;11.80;;
19179;SDS011;9722;48.754;8.868;2022-12-04T06:40:46;17.00;;;12.80;;
19179;SDS011;9722;48.754;8.868;2022-12-04T06:44:06;15.93;;;12.73;;
19179;SDS011;9722;48.754;8.868;2022-12-04T06:47:27;19.03;;;12.43;;
19179;SDS011;9722;48.754;8.868;2022-12-04T06:50:47;16.10;;;11.87;;
19179;SDS011;9722;48.754;8.868;2022-12-04T06:54:08;15.83;;;11.40;;
19179;SDS011;9722;48.754;8.868;2022-12-04T06:57:29;14.80;;;11.43;;
19179;SDS011;9722;48.754;8.868;2022-12-04T07:00:50;16.67;;;11.57;;
19179;SDS011;9722;48.754;8.868;2022-12-04T07:04:11;15.73;;;11.83;;
19179;SDS011;9722;48.754;8.868;2022-12-04T07:07:31;16.87;;;12.57;;
19179;SDS011;9722;48.754;8.868;2022-12-04T07:10:52;13.70;;;10.80;;
19179;SDS011;9722;48.754;8.868;2022-12-04T07:14:12;15.47;;;11.50;;
19179;SDS011;9722;48.754;8.868;2022-12-04T07:17:33;15.07;;;11.40;;
19179;SDS011;9722;48.754;8.868;2022-12-04T07:20:54;16.57;;;11.87;;
19179;SDS011;9722;48.754;8.868;2022-12-04T07:24:15;12.57;;;10.50;;
19179;SDS011;9722;48.754;8.868;2022-12-04T07:27:37;13.50;;;10.93;;
19179;SDS011;9722;48.754;8.868;2022-12-04T07:30:58;15.47;;;11.00;;
19179;SDS011;9722;48.754;8.868;2022-12-04T07:34:21;14.83;;;10.93;;
19179;SDS011;9722;48.754;8.868;2022-12-04T07:37:42;14.53;;;10.10;;
19179;SDS011;9722;48.754;8.868;2022-12-04T07:41:03;13.87;;;11.17;;
19179;SDS011;9722;48.754;8.868;2022-12-04T07:44:25;12.63;;;10.63;;
19179;SDS011;9722;48.754;8.868;2022-12-04T07:47:45;15.60;;;11.30;;
19179;SDS011;9722;48.754;8.868;2022-12-04T07:51:10;15.33;;;11.17;;
19179;SDS011;9722;48.754;8.868;2022-12-04T07:54:32;14.47;;;9.97;;
19179;SDS011;9722;48.754;8.868;2022-12-04T07:57:54;13.37;;;10.07;;
19179;SDS011;9722;48.754;8.868;2022-12-04T08:01:16;12.90;;;10.13;;
19179;SDS011;9722;48.754;8.868;2022-12-04T08:04:39;13.73;;;11.03;;
19179;SDS011;9722;48.754;8.868;2022-12-04T08:07:59;13.40;;;10.20;;
19179;SDS011;9722;48.754;8.868;2022-12-04T08:11:21;14.40;;;10.20;;
19179;SDS011;9722;48.754;8.868;2022-12-04T08:14:43;14.47;;;10.10;;
19179;SDS011;9722;48.754;8.868;2022-12-04T08:18:03;14.30;;;11.07;;
19179;SDS011;9722;48.754;8.868;2022-12-04T08:21:26;13.07;;;10.00;;
19179;SDS011;9722;48.754;8.868;2022-12-04T08:24:48;17.80;;;11.33;;
19179;SDS011;9722;48.754;8.868;2022-12-04T08:28:09;15.07;;;11.33;;
19179;SDS011;9722;48.754;8.868;2022-12-04T08:31:31;14.03;;;11.43;;
19179;SDS011;9722;48.754;8.868;2022-12-04T08:34:53;15.00;;;11.60;;
19179;SDS011;9722;48.754;8.868;2022-12-04T08:38:14;14.63;;;11.00;;
19179;SDS011;9722;48.754;8.868;2022-12-04T08:41:34;16.03;;;11.97;;
19179;SDS011;9722;48.754;8.868;2022-12-04T08:44:55;15.53;;;11.27;;
19179;SDS011;9722;48.754;8.868;2022-12-04T08:48:15;14.77;;;11.33;;
19179;SDS011;9722;48.754;8.868;2022-12-04T08:51:36;20.47;;;12.63;;
19179;SDS011;9722;48.754;8.868;2022-12-04T08:54:56;16.70;;;11.87;;
19179;SDS011;9722;48.754;8.868;2022-12-04T08:58:17;15.37;;;11.67;;
19179;SDS011;9722;48.754;8.868;2022-12-04T09:01:39;14.10;;;11.73;;
19179;SDS011;9722;48.754;8.868;2022-12-04T09:04:59;16.03;;;11.77;;
19179;SDS011;9722;48.754;8.868;2022-12-04T09:08:20;15.00;;;11.20;;
19179;SDS011;9722;48.754;8.868;2022-12-04T09:11:40;16.03;;;11.00;;
19179;SDS011;9722;48.754;8.868;2022-12-04T09:15:05;16.27;;;11.27;;
19179;SDS011;9722;48.754;8.868;2022-12-04T09:18:26;15.53;;;11.47;;
19179;SDS011;9722;48.754;8.868;2022-12-04T09:21:46;14.17;;;10.87;;
19179;SDS011;9722;48.754;8.868;2022-12-04T09:25:07;12.43;;;9.93;;
19179;SDS011;9722;48.754;8.868;2022-12-04T09:28:28;14.13;;;11.00;;
19179;SDS011;9722;48.754;8.868;2022-12-04T09:31:48;16.10;;;10.83;;
19179;SDS011;9722;48.754;8.868;2022-12-04T09:35:09;13.17;;;10.50;;
19179;SDS011;9722;48.754;8.868;2022-12-04T09:38:29;14.03;;;10.50;;
19179;SDS011;9722;48.754;8.868;2022-12-04T09:45:41;14.93;;;10.97;;
19179;SDS011;9722;48.754;8.868;2022-12-04T09:52:58;13.40;;;11.17;;
19179;SDS011;9722;48.754;8.868;2022-12-04T09:56:22;15.53;;;10.73;;
19179;SDS011;9722;48.754;8.868;2022-12-04T09:59:46;16.83;;;10.27;;
19179;SDS011;9722;48.754;8.868;2022-12-04T10:03:15;14.53;;;10.03;;
19179;SDS011;9722;48.754;8.868;2022-12-04T10:06:48;12.27;;;9.30;;
19179;SDS011;9722;48.754;8.868;2022-12-04T10:10:35;13.53;;;10.17;;
19179;SDS011;9722;48.754;8.868;2022-12-04T10:21:04;11.00;;;9.03;;
19179;SDS011;9722;48.754;8.868;2022-12-04T10:24:48;12.67;;;10.20;;
19179;SDS011;9722;48.754;8.868;2022-12-04T10:28:19;15.70;;;11.13;;
19179;SDS011;9722;48.754;8.868;2022-12-04T10:31:46;15.67;;;11.20;;
19179;SDS011;9722;48.754;8.868;2022-12-04T10:35:17;15.43;;;11.10;;
19179;SDS011;9722;48.754;8.868;2022-12-04T10:38:45;13.87;;;11.03;;
19179;SDS011;9722;48.754;8.868;2022-12-04T10:42:31;15.97;;;11.20;;
19179;SDS011;9722;48.754;8.868;2022-12-04T10:46:02;15.33;;;11.30;;
19179;SDS011;9722;48.754;8.868;2022-12-04T10:49:26;13.67;;;10.70;;
19179;SDS011;9722;48.754;8.868;2022-12-04T10:52:48;11.90;;;10.70;;
19179;SDS011;9722;48.754;8.868;2022-12-04T10:56:10;15.63;;;11.37;;
19179;SDS011;9722;48.754;8.868;2022-12-04T10:59:33;17.47;;;12.20;;
19179;SDS011;9722;48.754;8.868;2022-12-04T11:02:54;16.53;;;12.07;;
19179;SDS011;9722;48.754;8.868;2022-12-04T11:06:22;15.77;;;12.13;;
19179;SDS011;9722;48.754;8.868;2022-12-04T11:09:52;16.10;;;11.80;;
19179;SDS011;9722;48.754;8.868;2022-12-04T11:13:16;18.97;;;12.40;;
19179;SDS011;9722;48.754;8.868;2022-12-04T11:16:37;18.47;;;13.17;;
19179;SDS011;9722;48.754;8.868;2022-12-04T11:20:04;16.77;;;12.20;;
19179;SDS011;9722;48.754;8.868;2022-12-04T11:23:29;13.33;;;11.20;;
19179;SDS011;9722;48.754;8.868;2022-12-04T11:26:53;18.60;;;12.80;;
19179;SDS011;9722;48.754;8.868;2022-12-04T11:30:18;17.13;;;12.57;;
19179;SDS011;9722;48.754;8.868;2022-12-04T11:33:45;16.30;;;11.83;;
19179;SDS011;9722;48.754;8.868;2022-12-04T11:37:17;13.80;;;11.37;;
19179;SDS011;9722;48.754;8.868;2022-12-04T11:40:50;20.00;;;14.57;;
19179;SDS011;9722;48.754;8.868;2022-12-04T11:44:19;15.30;;;12.83;;
19179;SDS011;9722;48.754;8.868;2022-12-04T11:47:52;15.53;;;11.30;;
19179;SDS011;9722;48.754;8.868;2022-12-04T11:51:39;19.47;;;12.83;;
19179;SDS011;9722;48.754;8.868;2022-12-04T11:55:18;16.67;;;11.83;;
19179;SDS011;9722;48.754;8.868;2022-12-04T11:58:46;15.10;;;11.73;;
19179;SDS011;9722;48.754;8.868;2022-12-04T12:02:41;15.70;;;11.93;;
19179;SDS011;9722;48.754;8.868;2022-12-04T12:06:29;17.03;;;12.10;;
19179;SDS011;9722;48.754;8.868;2022-12-04T12:20:36;14.87;;;11.30;;
19179;SDS011;9722;48.754;8.868;2022-12-04T12:24:30;13.47;;;11.00;;
19179;SDS011;9722;48.754;8.868;2022-12-04T12:31:51;13.97;;;12.07;;
19179;SDS011;9722;48.754;8.868;2022-12-04T12:39:15;13.63;;;12.23;;
19179;SDS011;9722;48.754;8.868;2022-12-04T12:42:51;16.93;;;11.87;;
19179;SDS011;9722;48.754;8.868;2022-12-04T12:46:35;15.87;;;12.60;;
19179;SDS011;9722;48.754;8.868;2022-12-04T12:50:12;15.73;;;11.97;;
19179;SDS011;9722;48.754;8.868;2022-12-04T12:53:39;14.93;;;12.97;;
19179;SDS011;9722;48.754;8.868;2022-12-04T12:57:17;15.57;;;11.73;;
19179;SDS011;9722;48.754;8.868;2022-12-04T13:00:46;14.13;;;10.37;;
19179;SDS011;9722;48.754;8.868;2022-12-04T13:04:17;13.93;;;11.50;;
19179;SDS011;9722;48.754;8.868;2022-12-04T13:07:44;15.60;;;10.80;;
19179;SDS011;9722;48.754;8.868;2022-12-04T13:11:19;15.70;;;11.13;;
19179;SDS011;9722;48.754;8.868;2022-12-04T13:14:42;15.53;;;10.77;;
19179;SDS011;9722;48.754;8.868;2022-12-04T13:18:03;15.63;;;10.63;;
19179;SDS011;9722;48.754;8.868;2022-12-04T13:25:14;13.67;;;10.73;;
19179;SDS011;9722;48.754;8.868;2022-12-04T13:28:52;11.67;;;9.37;;
19179;SDS011;9722;48.754;8.868;2022-12-04T13:47:00;12.37;;;9.43;;
19179;SDS011;9722;48.754;8.868;2022-12-04T13:50:27;13.73;;;9.87;;
19179;SDS011;9722;48.754;8.868;2022-12-04T13:54:17;23.87;;;15.90;;
19179;SDS011;9722;48.754;8.868;2022-12-04T13:57:51;28.37;;;19.53;;
19179;SDS011;9722;48.754;8.868;2022-12-04T14:01:23;18.10;;;12.03;;
19179;SDS011;9722;48.754;8.868;2022-12-04T14:04:53;12.30;;;9.60;;
19179;SDS011;9722;48.754;8.868;2022-12-04T14:11:41;12.50;;;10.20;;
19179;SDS011;9722;48.754;8.868;2022-12-04T14:15:20;14.93;;;10.73;;
19179;SDS011;9722;48.754;8.868;2022-12-04T14:18:45;17.83;;;12.80;;
19179;SDS011;9722;48.754;8.868;2022-12-04T14:22:28;14.37;;;10.23;;
19179;SDS011;9722;48.754;8.868;2022-12-04T14:26:02;14.70;;;12.07;;
19179;SDS011;9722;48.754;8.868;2022-12-04T14:29:28;17.87;;;12.73;;
19179;SDS011;9722;48.754;8.868;2022-12-04T14:33:08;16.23;;;11.10;;
19179;SDS011;9722;48.754;8.868;2022-12-04T14:36:43;15.03;;;10.43;;
19179;SDS011;9722;48.754;8.868;2022-12-04T14:40:13;12.27;;;10.33;;
19179;SDS011;9722;48.754;8.868;2022-12-04T14:43:40;13.47;;;11.60;;
19179;SDS011;9722;48.754;8.868;2022-12-04T14:51:03;13.13;;;10.13;;
19179;SDS011;9722;48.754;8.868;2022-12-04T14:57:59;12.30;;;10.20;;
19179;SDS011;9722;48.754;8.868;2022-12-04T15:01:47;11.40;;;8.90;;
19179;SDS011;9722;48.754;8.868;2022-12-04T15:05:09;11.23;;;8.13;;
19179;SDS011;9722;48.754;8.868;2022-12-04T15:08:34;12.67;;;8.73;;
19179;SDS011;9722;48.754;8.868;2022-12-04T15:11:55;10.30;;;9.00;;
19179;SDS011;9722;48.754;8.868;2022-12-04T15:15:36;14.07;;;9.60;;
19179;SDS011;9722;48.754;8.868;2022-12-04T15:19:03;14.27;;;9.27;;
19179;SDS011;9722;48.754;8.868;2022-12-04T15:22:24;12.17;;;9.10;;
19179;SDS011;9722;48.754;8.868;2022-12-04T15:25:48;12.47;;;9.33;;
19179;SDS011;9722;48.754;8.868;2022-12-04T15:29:47;14.40;;;9.57;;
19179;SDS011;9722;48.754;8.868;2022-12-04T15:33:07;15.33;;;10.37;;
19179;SDS011;9722;48.754;8.868;2022-12-04T15:40:26;10.47;;;8.77;;
19179;SDS011;9722;48.754;8.868;2022-12-04T15:43:47;12.40;;;9.20;;
19179;SDS011;9722;48.754;8.868;2022-12-04T15:47:22;10.97;;;9.27;;
19179;SDS011;9722;48.754;8.868;2022-12-04T15:50:44;10.70;;;9.23;;
19179;SDS011;9722;48.754;8.868;2022-12-04T15:54:22;10.90;;;9.07;;
19179;SDS011;9722;48.754;8.868;2022-12-04T15:57:49;15.67;;;10.97;;
19179;SDS011;9722;48.754;8.868;2022-12-04T16:01:12;14.27;;;10.80;;
19179;SDS011;9722;48.754;8.868;2022-12-04T16:04:34;16.97;;;12.10;;
19179;SDS011;9722;48.754;8.868;2022-12-04T16:07:57;11.30;;;9.67;;
19179;SDS011;9722;48.754;8.868;2022-12-04T16:14:40;12.50;;;9.97;;
19179;SDS011;9722;48.754;8.868;2022-12-04T16:18:01;15.40;;;10.97;;
19179;SDS011;9722;48.754;8.868;2022-12-04T16:21:27;16.77;;;12.87;;
19179;SDS011;9722;48.754;8.868;2022-12-04T16:24:50;13.37;;;10.30;;
19179;SDS011;9722;48.754;8.868;2022-12-04T16:28:10;13.53;;;9.60;;
19179;SDS011;9722;48.754;8.868;2022-12-04T16:31:31;14.23;;;10.80;;
19179;SDS011;9722;48.754;8.868;2022-12-04T16:34:51;12.50;;;10.40;;
19179;SDS011;9722;48.754;8.868;2022-12-04T16:38:13;12.80;;;10.80;;
19179;SDS011;9722;48.754;8.868;2022-12-04T16:41:35;20.47;;;14.17;;
19179;SDS011;9722;48.754;8.868;2022-12-04T16:44:55;27.03;;;16.93;;
19179;SDS011;9722;48.754;8.868;2022-12-04T16:48:17;23.37;;;15.43;;
19179;SDS011;9722;48.754;8.868;2022-12-04T16:51:38;16.07;;;11.13;;
19179;SDS011;9722;48.754;8.868;2022-12-04T16:55:25;14.63;;;10.50;;
19179;SDS011;9722;48.754;8.868;2022-12-04T16:58:50;16.20;;;11.50;;
19179;SDS011;9722;48.754;8.868;2022-12-04T17:02:15;24.37;;;14.30;;
19179;SDS011;9722;48.754;8.868;2022-12-04T17:05:44;16.73;;;12.90;;
19179;SDS011;9722;48.754;8.868;2022-12-04T17:09:05;17.03;;;11.93;;
19179;SDS011;9722;48.754;8.868;2022-12-04T17:12:26;18.33;;;11.83;;
19179;SDS011;9722;48.754;8.868;2022-12-04T17:15:47;19.90;;;13.83;;
19179;SDS011;9722;48.754;8.868;2022-12-04T17:19:08;20.87;;;12.97;;
19179;SDS011;9722;48.754;8.868;2022-12-04T17:22:30;26.30;;;12.43;;
19179;SDS011;9722;48.754;8.868;2022-12-04T17:25:51;25.47;;;14.57;;
19179;SDS011;9722;48.754;8.868;2022-12-04T17:29:11;23.57;;;11.80;;
19179;SDS011;9722;48.754;8.868;2022-12-04T17:32:32;19.70;;;11.43;;
19179;SDS011;9722;48.754;8.868;2022-12-04T17:35:53;18.23;;;11.00;;
19179;SDS011;9722;48.754;8.868;2022-12-04T17:39:14;29.87;;;13.50;;
19179;SDS011;9722;48.754;8.868;2022-12-04T17:42:35;22.70;;;12.73;;
19179;SDS011;9722;48.754;8.868;2022-12-04T17:45:56;18.80;;;11.80;;
19179;SDS011;9722;48.754;8.868;2022-12-04T17:49:16;24.83;;;12.70;;
19179;SDS011;9722;48.754;8.868;2022-12-04T17:52:37;24.27;;;14.13;;
19179;SDS011;9722;48.754;8.868;2022-12-04T17:56:02;25.40;;;13.10;;
19179;SDS011;9722;48.754;8.868;2022-12-04T17:59:26;23.83;;;11.90;;
19179;SDS011;9722;48.754;8.868;2022-12-04T18:02:47;18.33;;;11.57;;
19179;SDS011;9722;48.754;8.868;2022-12-04T18:06:21;28.33;;;10.73;;
19179;SDS011;9722;48.754;8.868;2022-12-04T18:09:44;30.63;;;11.00;;
19179;SDS011;9722;48.754;8.868;2022-12-04T18:13:04;39.10;;;11.87;;
19179;SDS011;9722;48.754;8.868;2022-12-04T18:16:25;40.57;;;17.00;;
19179;SDS011;9722;48.754;8.868;2022-12-04T18:19:47;25.30;;;13.43;;
19179;SDS011;9722;48.754;8.868;2022-12-04T18:23:07;36.63;;;16.73;;
19179;SDS011;9722;48.754;8.868;2022-12-04T18:26:32;34.33;;;16.07;;
19179;SDS011;9722;48.754;8.868;2022-12-04T18:29:57;26.97;;;11.97;;
19179;SDS011;9722;48.754;8.868;2022-12-04T18:33:20;25.10;;;9.97;;
19179;SDS011;9722;48.754;8.868;2022-12-04T18:36:41;26.17;;;10.23;;
19179;SDS011;9722;48.754;8.868;2022-12-04T18:40:04;42.17;;;11.47;;
19179;SDS011;9722;48.754;8.868;2022-12-04T18:43:25;37.00;;;10.20;;
19179;SDS011;9722;48.754;8.868;2022-12-04T18:46:46;32.27;;;11.77;;
19179;SDS011;9722;48.754;8.868;2022-12-04T18:50:06;21.63;;;10.20;;
19179;SDS011;9722;48.754;8.868;2022-12-04T18:53:27;24.93;;;11.37;;
19179;SDS011;9722;48.754;8.868;2022-12-04T18:56:48;17.73;;;9.50;;
19179;SDS011;9722;48.754;8.868;2022-12-04T19:00:09;28.80;;;10.97;;
19179;SDS011;9722;48.754;8.868;2022-12-04T19:03:30;24.33;;;12.33;;
19179;SDS011;9722;48.754;8.868;2022-12-04T19:06:54;33.40;;;10.83;;
19179;SDS011;9722;48.754;8.868;2022-12-04T19:10:15;27.83;;;11.63;;
19179;SDS011;9722;48.754;8.868;2022-12-04T19:13:35;30.57;;;12.30;;
19179;SDS011;9722;48.754;8.868;2022-12-04T19:16:56;20.53;;;11.03;;
19179;SDS011;9722;48.754;8.868;2022-12-04T19:20:17;19.53;;;11.50;;
19179;SDS011;9722;48.754;8.868;2022-12-04T19:23:38;18.40;;;11.60;;
19179;SDS011;9722;48.754;8.868;2022-12-04T19:26:59;19.13;;;11.50;;
19179;SDS011;9722;48.754;8.868;2022-12-04T19:30:20;21.40;;;12.97;;
19179;SDS011;9722;48.754;8.868;2022-12-04T19:33:41;17.87;;;11.87;;
19179;SDS011;9722;48.754;8.868;2022-12-04T19:37:01;20.67;;;11.30;;
19179;SDS011;9722;48.754;8.868;2022-12-04T19:40:22;18.77;;;12.07;;
19179;SDS011;9722;48.754;8.868;2022-12-04T19:43:44;17.70;;;10.90;;
19179;SDS011;9722;48.754;8.868;2022-12-04T19:47:06;17.30;;;12.33;;
19179;SDS011;9722;48.754;8.868;2022-12-04T19:50:27;19.60;;;11.53;;
19179;SDS011;9722;48.754;8.868;2022-12-04T19:53:47;14.27;;;11.57;;
19179;SDS011;9722;48.754;8.868;2022-12-04T19:57:08;28.57;;;16.33;;
19179;SDS011;9722;48.754;8.868;2022-12-04T20:00:28;22.13;;;13.00;;
19179;SDS011;9722;48.754;8.868;2022-12-04T20:03:49;24.93;;;16.90;;
19179;SDS011;9722;48.754;8.868;2022-12-04T20:07:10;25.77;;;16.50;;
19179;SDS011;9722;48.754;8.868;2022-12-04T20:10:33;17.67;;;12.20;;
19179;SDS011;9722;48.754;8.868;2022-12-04T20:13:54;14.30;;;11.20;;
19179;SDS011;9722;48.754;8.868;2022-12-04T20:17:15;17.67;;;12.00;;
19179;SDS011;9722;48.754;8.868;2022-12-04T20:20:36;15.37;;;12.03;;
19179;SDS011;9722;48.754;8.868;2022-12-04T20:23:57;12.77;;;11.20;;
19179;SDS011;9722;48.754;8.868;2022-12-04T20:27:20;33.83;;;18.83;;
19179;SDS011;9722;48.754;8.868;2022-12-04T20:30:41;15.27;;;12.63;;
19179;SDS011;9722;48.754;8.868;2022-12-04T20:34:05;20.13;;;13.87;;
19179;SDS011;9722;48.754;8.868;2022-12-04T20:37:27;15.23;;;10.67;;
19179;SDS011;9722;48.754;8.868;2022-12-04T20:40:47;14.53;;;11.23;;
19179;SDS011;9722;48.754;8.868;2022-12-04T20:44:09;13.57;;;11.50;;
19179;SDS011;9722;48.754;8.868;2022-12-04T20:47:32;21.00;;;14.77;;
19179;SDS011;9722;48.754;8.868;2022-12-04T20:50:55;17.53;;;13.13;;
19179;SDS011;9722;48.754;8.868;2022-12-04T20:54:19;18.83;;;13.13;;
19179;SDS011;9722;48.754;8.868;2022-12-04T20:57:41;18.70;;;12.43;;
19179;SDS011;9722;48.754;8.868;2022-12-04T21:01:06;14.70;;;11.33;;
19179;SDS011;9722;48.754;8.868;2022-12-04T21:04:34;19.13;;;12.40;;
19179;SDS011;9722;48.754;8.868;2022-12-04T21:07:56;12.27;;;9.97;;
19179;SDS011;9722;48.754;8.868;2022-12-04T21:11:17;16.60;;;11.73;;
19179;SDS011;9722;48.754;8.868;2022-12-04T21:15:04;16.37;;;11.13;;
19179;SDS011;9722;48.754;8.868;2022-12-04T21:18:44;17.37;;;12.80;;
19179;SDS011;9722;48.754;8.868;2022-12-04T21:22:04;16.60;;;11.33;;
19179;SDS011;9722;48.754;8.868;2022-12-04T21:25:25;14.93;;;12.43;;
19179;SDS011;9722;48.754;8.868;2022-12-04T21:28:46;13.07;;;10.07;;
19179;SDS011;9722;48.754;8.868;2022-12-04T21:32:07;16.43;;;10.33;;
19179;SDS011;9722;48.754;8.868;2022-12-04T21:35:28;15.63;;;11.33;;
19179;SDS011;9722;48.754;8.868;2022-12-04T21:38:48;13.03;;;9.20;;
19179;SDS011;9722;48.754;8.868;2022-12-04T21:42:09;15.00;;;9.33;;
19179;SDS011;9722;48.754;8.868;2022-12-04T21:46:02;8.93;;;7.23;;
19179;SDS011;9722;48.754;8.868;2022-12-04T21:49:24;10.60;;;8.23;;
19179;SDS011;9722;48.754;8.868;2022-12-04T21:52:45;11.23;;;8.20;;
19179;SDS011;9722;48.754;8.868;2022-12-04T21:56:05;11.93;;;7.67;;